sensor_id;sensor_type;location;lat;lon;timestamp;P1;durP1;ratioP1;P2;durP2;ratioP2
53618;SDS011;68717;53.040;18.488;2023-06-22T00:00:09;19.55;;;13.48;;
53618;SDS011;68717;53.040;18.488;2023-06-22T00:00:45;17.38;;;12.77;;
53618;SDS011;68717;53.040;18.488;2023-06-22T00:01:14;20.05;;;13.52;;
53618;SDS011;68717;53.040;18.488;2023-06-22T00:01:27;19.95;;;13.52;;
53618;SDS011;68717;53.040;18.488;2023-06-22T00:01:41;18.33;;;13.48;;
53618;SDS011;68717;53.040;18.488;2023-06-22T00:01:53;17.60;;;13.43;;
53618;SDS011;68717;53.040;18.488;2023-06-22T00:02:06;18.58;;;13.23;;
53618;SDS011;68717;53.040;18.488;2023-06-22T00:02:19;18.77;;;13.27;;
53618;SDS011;68717;53.040;18.488;2023-06-22T00:02:32;19.25;;;13.85;;
53618;SDS011;68717;53.040;18.488;2023-06-22T00:02:44;19.25;;;13.95;;
53618;SDS011;68717;53.040;18.488;2023-06-22T00:02:57;18.40;;;13.50;;
53618;SDS011;68717;53.040;18.488;2023-06-22T00:03:11;18.55;;;13.13;;
53618;SDS011;68717;53.040;18.488;2023-06-22T00:03:24;18.42;;;13.13;;
53618;SDS011;68717;53.040;18.488;2023-06-22T00:03:38;17.90;;;13.20;;
53618;SDS011;68717;53.040;18.488;2023-06-22T00:03:50;19.05;;;13.43;;
53618;SDS011;68717;53.040;18.488;2023-06-22T00:04:03;18.92;;;13.25;;
53618;SDS011;68717;53.040;18.488;2023-06-22T00:04:16;19.38;;;13.50;;
53618;SDS011;68717;53.040;18.488;2023-06-22T00:04:30;18.98;;;13.27;;
53618;SDS011;68717;53.040;18.488;2023-06-22T00:04:43;18.65;;;13.15;;
53618;SDS011;68717;53.040;18.488;2023-06-22T00:04:55;18.35;;;12.98;;
53618;SDS011;68717;53.040;18.488;2023-06-22T00:05:08;17.30;;;13.13;;
53618;SDS011;68717;53.040;18.488;2023-06-22T00:05:20;17.38;;;13.25;;
53618;SDS011;68717;53.040;18.488;2023-06-22T00:05:33;17.48;;;13.07;;
53618;SDS011;68717;53.040;18.488;2023-06-22T00:05:46;17.65;;;12.77;;
53618;SDS011;68717;53.040;18.488;2023-06-22T00:06:00;17.83;;;12.90;;
53618;SDS011;68717;53.040;18.488;2023-06-22T00:06:13;18.13;;;13.05;;
53618;SDS011;68717;53.040;18.488;2023-06-22T00:06:25;19.52;;;13.40;;
53618;SDS011;68717;53.040;18.488;2023-06-22T00:06:38;18.80;;;13.20;;
53618;SDS011;68717;53.040;18.488;2023-06-22T00:06:51;18.20;;;13.25;;
53618;SDS011;68717;53.040;18.488;2023-06-22T00:07:03;17.38;;;12.77;;
53618;SDS011;68717;53.040;18.488;2023-06-22T00:07:16;17.92;;;12.48;;
53618;SDS011;68717;53.040;18.488;2023-06-22T00:07:29;18.00;;;12.63;;
53618;SDS011;68717;53.040;18.488;2023-06-22T00:07:43;18.10;;;12.77;;
53618;SDS011;68717;53.040;18.488;2023-06-22T00:07:55;18.25;;;12.93;;
53618;SDS011;68717;53.040;18.488;2023-06-22T00:08:09;18.02;;;12.70;;
53618;SDS011;68717;53.040;18.488;2023-06-22T00:08:22;17.05;;;12.55;;
53618;SDS011;68717;53.040;18.488;2023-06-22T00:08:35;18.05;;;12.50;;
53618;SDS011;68717;53.040;18.488;2023-06-22T00:08:47;18.80;;;12.40;;
53618;SDS011;68717;53.040;18.488;2023-06-22T00:09:00;19.52;;;12.57;;
53618;SDS011;68717;53.040;18.488;2023-06-22T00:09:12;18.27;;;12.75;;
53618;SDS011;68717;53.040;18.488;2023-06-22T00:09:26;16.50;;;12.35;;
53618;SDS011;68717;53.040;18.488;2023-06-22T00:09:39;16.55;;;12.00;;
53618;SDS011;68717;53.040;18.488;2023-06-22T00:09:52;16.65;;;11.93;;
53618;SDS011;68717;53.040;18.488;2023-06-22T00:10:05;16.35;;;11.98;;
53618;SDS011;68717;53.040;18.488;2023-06-22T00:10:18;18.48;;;12.45;;
53618;SDS011;68717;53.040;18.488;2023-06-22T00:10:31;18.40;;;12.32;;
53618;SDS011;68717;53.040;18.488;2023-06-22T00:10:44;16.65;;;12.10;;
53618;SDS011;68717;53.040;18.488;2023-06-22T00:10:58;15.32;;;11.88;;
53618;SDS011;68717;53.040;18.488;2023-06-22T00:11:11;16.38;;;12.05;;
53618;SDS011;68717;53.040;18.488;2023-06-22T00:11:24;16.63;;;12.05;;
53618;SDS011;68717;53.040;18.488;2023-06-22T00:11:36;16.70;;;12.10;;
53618;SDS011;68717;53.040;18.488;2023-06-22T00:11:49;16.85;;;12.43;;
53618;SDS011;68717;53.040;18.488;2023-06-22T00:12:02;16.48;;;12.50;;
53618;SDS011;68717;53.040;18.488;2023-06-22T00:12:16;16.55;;;12.30;;
53618;SDS011;68717;53.040;18.488;2023-06-22T00:12:28;16.60;;;12.30;;
53618;SDS011;68717;53.040;18.488;2023-06-22T00:12:42;17.75;;;12.57;;
53618;SDS011;68717;53.040;18.488;2023-06-22T00:12:55;18.20;;;12.77;;
53618;SDS011;68717;53.040;18.488;2023-06-22T00:13:08;17.63;;;12.73;;
53618;SDS011;68717;53.040;18.488;2023-06-22T00:13:21;15.82;;;12.23;;
53618;SDS011;68717;53.040;18.488;2023-06-22T00:13:34;15.73;;;11.80;;
53618;SDS011;68717;53.040;18.488;2023-06-22T00:13:47;16.42;;;12.00;;
53618;SDS011;68717;53.040;18.488;2023-06-22T00:14:00;16.05;;;11.88;;
53618;SDS011;68717;53.040;18.488;2023-06-22T00:14:14;15.57;;;11.77;;
53618;SDS011;68717;53.040;18.488;2023-06-22T00:14:27;15.70;;;11.88;;
53618;SDS011;68717;53.040;18.488;2023-06-22T00:14:39;15.98;;;12.13;;
53618;SDS011;68717;53.040;18.488;2023-06-22T00:14:52;15.85;;;12.23;;
53618;SDS011;68717;53.040;18.488;2023-06-22T00:15:05;15.77;;;12.25;;
53618;SDS011;68717;53.040;18.488;2023-06-22T00:15:18;16.02;;;12.15;;
53618;SDS011;68717;53.040;18.488;2023-06-22T00:15:31;16.48;;;12.30;;
53618;SDS011;68717;53.040;18.488;2023-06-22T00:15:45;18.33;;;12.63;;
53618;SDS011;68717;53.040;18.488;2023-06-22T00:15:58;18.00;;;12.38;;
53618;SDS011;68717;53.040;18.488;2023-06-22T00:16:10;16.95;;;12.30;;
53618;SDS011;68717;53.040;18.488;2023-06-22T00:16:23;16.83;;;12.45;;
53618;SDS011;68717;53.040;18.488;2023-06-22T00:16:36;17.17;;;12.60;;
53618;SDS011;68717;53.040;18.488;2023-06-22T00:16:50;17.10;;;12.52;;
53618;SDS011;68717;53.040;18.488;2023-06-22T00:17:06;17.05;;;12.65;;
53618;SDS011;68717;53.040;18.488;2023-06-22T00:17:19;16.67;;;12.68;;
53618;SDS011;68717;53.040;18.488;2023-06-22T00:17:32;17.15;;;12.63;;
53618;SDS011;68717;53.040;18.488;2023-06-22T00:17:45;18.30;;;12.52;;
53618;SDS011;68717;53.040;18.488;2023-06-22T00:17:58;19.98;;;12.88;;
53618;SDS011;68717;53.040;18.488;2023-06-22T00:18:12;18.20;;;12.23;;
53618;SDS011;68717;53.040;18.488;2023-06-22T00:18:25;16.98;;;12.20;;
53618;SDS011;68717;53.040;18.488;2023-06-22T00:18:40;16.83;;;12.30;;
53618;SDS011;68717;53.040;18.488;2023-06-22T00:18:59;16.92;;;12.15;;
53618;SDS011;68717;53.040;18.488;2023-06-22T00:19:12;16.50;;;12.10;;
53618;SDS011;68717;53.040;18.488;2023-06-22T00:19:25;16.00;;;11.90;;
53618;SDS011;68717;53.040;18.488;2023-06-22T00:19:38;16.10;;;11.80;;
53618;SDS011;68717;53.040;18.488;2023-06-22T00:19:52;16.77;;;12.07;;
53618;SDS011;68717;53.040;18.488;2023-06-22T00:20:07;16.52;;;12.20;;
53618;SDS011;68717;53.040;18.488;2023-06-22T00:20:22;16.08;;;12.05;;
53618;SDS011;68717;53.040;18.488;2023-06-22T00:20:35;16.08;;;11.82;;
53618;SDS011;68717;53.040;18.488;2023-06-22T00:20:49;15.95;;;11.88;;
53618;SDS011;68717;53.040;18.488;2023-06-22T00:21:01;15.77;;;12.02;;
53618;SDS011;68717;53.040;18.488;2023-06-22T00:21:15;16.50;;;12.13;;
53618;SDS011;68717;53.040;18.488;2023-06-22T00:21:28;16.70;;;12.27;;
53618;SDS011;68717;53.040;18.488;2023-06-22T00:21:41;16.67;;;12.55;;
53618;SDS011;68717;53.040;18.488;2023-06-22T00:21:54;16.73;;;12.52;;
53618;SDS011;68717;53.040;18.488;2023-06-22T00:22:08;17.38;;;12.27;;
53618;SDS011;68717;53.040;18.488;2023-06-22T00:22:21;16.95;;;12.15;;
53618;SDS011;68717;53.040;18.488;2023-06-22T00:22:40;16.63;;;12.07;;
53618;SDS011;68717;53.040;18.488;2023-06-22T00:22:55;16.42;;;12.13;;
53618;SDS011;68717;53.040;18.488;2023-06-22T00:23:10;15.63;;;12.10;;
53618;SDS011;68717;53.040;18.488;2023-06-22T00:23:23;16.05;;;12.35;;
53618;SDS011;68717;53.040;18.488;2023-06-22T00:23:36;16.50;;;12.40;;
53618;SDS011;68717;53.040;18.488;2023-06-22T00:23:49;17.20;;;12.15;;
53618;SDS011;68717;53.040;18.488;2023-06-22T00:24:02;18.70;;;12.13;;
53618;SDS011;68717;53.040;18.488;2023-06-22T00:24:15;20.55;;;12.50;;
53618;SDS011;68717;53.040;18.488;2023-06-22T00:24:28;19.60;;;12.32;;
53618;SDS011;68717;53.040;18.488;2023-06-22T00:24:42;19.13;;;12.52;;
53618;SDS011;68717;53.040;18.488;2023-06-22T00:24:54;18.25;;;12.80;;
53618;SDS011;68717;53.040;18.488;2023-06-22T00:25:08;16.92;;;12.35;;
53618;SDS011;68717;53.040;18.488;2023-06-22T00:25:21;16.27;;;12.20;;
53618;SDS011;68717;53.040;18.488;2023-06-22T00:25:34;16.50;;;12.32;;
53618;SDS011;68717;53.040;18.488;2023-06-22T00:25:47;16.88;;;12.13;;
53618;SDS011;68717;53.040;18.488;2023-06-22T00:26:00;17.67;;;12.02;;
53618;SDS011;68717;53.040;18.488;2023-06-22T00:26:13;17.40;;;12.00;;
53618;SDS011;68717;53.040;18.488;2023-06-22T00:26:26;16.77;;;12.00;;
53618;SDS011;68717;53.040;18.488;2023-06-22T00:26:39;16.25;;;11.85;;
53618;SDS011;68717;53.040;18.488;2023-06-22T00:26:52;16.73;;;12.18;;
53618;SDS011;68717;53.040;18.488;2023-06-22T00:27:04;17.02;;;12.63;;
53618;SDS011;68717;53.040;18.488;2023-06-22T00:27:18;17.05;;;12.35;;
53618;SDS011;68717;53.040;18.488;2023-06-22T00:27:30;16.58;;;12.05;;
53618;SDS011;68717;53.040;18.488;2023-06-22T00:27:43;17.02;;;12.02;;
53618;SDS011;68717;53.040;18.488;2023-06-22T00:27:57;16.42;;;11.40;;
53618;SDS011;68717;53.040;18.488;2023-06-22T00:28:09;15.90;;;11.30;;
53618;SDS011;68717;53.040;18.488;2023-06-22T00:28:22;16.10;;;11.43;;
53618;SDS011;68717;53.040;18.488;2023-06-22T00:28:35;16.27;;;11.50;;
53618;SDS011;68717;53.040;18.488;2023-06-22T00:28:48;16.60;;;12.00;;
53618;SDS011;68717;53.040;18.488;2023-06-22T00:29:01;16.33;;;11.88;;
53618;SDS011;68717;53.040;18.488;2023-06-22T00:29:14;15.50;;;11.48;;
53618;SDS011;68717;53.040;18.488;2023-06-22T00:29:27;15.52;;;11.75;;
53618;SDS011;68717;53.040;18.488;2023-06-22T00:29:39;15.38;;;11.88;;
53618;SDS011;68717;53.040;18.488;2023-06-22T00:29:52;15.90;;;11.82;;
53618;SDS011;68717;53.040;18.488;2023-06-22T00:30:05;16.52;;;11.52;;
53618;SDS011;68717;53.040;18.488;2023-06-22T00:30:19;17.92;;;12.15;;
53618;SDS011;68717;53.040;18.488;2023-06-22T00:30:32;17.75;;;12.15;;
53618;SDS011;68717;53.040;18.488;2023-06-22T00:30:46;15.43;;;11.55;;
53618;SDS011;68717;53.040;18.488;2023-06-22T00:30:59;15.00;;;11.30;;
53618;SDS011;68717;53.040;18.488;2023-06-22T00:31:12;15.75;;;11.45;;
53618;SDS011;68717;53.040;18.488;2023-06-22T00:31:25;15.80;;;11.60;;
53618;SDS011;68717;53.040;18.488;2023-06-22T00:31:38;16.20;;;12.00;;
53618;SDS011;68717;53.040;18.488;2023-06-22T00:31:51;15.55;;;12.15;;
53618;SDS011;68717;53.040;18.488;2023-06-22T00:32:05;15.20;;;11.60;;
53618;SDS011;68717;53.040;18.488;2023-06-22T00:32:18;15.50;;;11.63;;
53618;SDS011;68717;53.040;18.488;2023-06-22T00:32:31;16.20;;;12.10;;
53618;SDS011;68717;53.040;18.488;2023-06-22T00:32:44;16.67;;;12.45;;
53618;SDS011;68717;53.040;18.488;2023-06-22T00:32:58;18.70;;;12.40;;
53618;SDS011;68717;53.040;18.488;2023-06-22T00:33:11;18.17;;;12.10;;
53618;SDS011;68717;53.040;18.488;2023-06-22T00:33:25;16.38;;;11.98;;
53618;SDS011;68717;53.040;18.488;2023-06-22T00:33:37;16.40;;;12.10;;
53618;SDS011;68717;53.040;18.488;2023-06-22T00:33:50;16.55;;;11.98;;
53618;SDS011;68717;53.040;18.488;2023-06-22T00:34:03;18.58;;;11.80;;
53618;SDS011;68717;53.040;18.488;2023-06-22T00:34:16;19.27;;;11.65;;
53618;SDS011;68717;53.040;18.488;2023-06-22T00:34:28;19.27;;;11.85;;
53618;SDS011;68717;53.040;18.488;2023-06-22T00:34:42;18.95;;;11.90;;
53618;SDS011;68717;53.040;18.488;2023-06-22T00:34:55;16.17;;;11.57;;
53618;SDS011;68717;53.040;18.488;2023-06-22T00:35:08;16.85;;;12.10;;
53618;SDS011;68717;53.040;18.488;2023-06-22T00:35:21;18.60;;;12.55;;
53618;SDS011;68717;53.040;18.488;2023-06-22T00:35:34;18.58;;;12.15;;
53618;SDS011;68717;53.040;18.488;2023-06-22T00:35:47;17.48;;;11.73;;
53618;SDS011;68717;53.040;18.488;2023-06-22T00:36:00;17.05;;;11.68;;
53618;SDS011;68717;53.040;18.488;2023-06-22T00:36:15;17.67;;;11.82;;
53618;SDS011;68717;53.040;18.488;2023-06-22T00:36:29;16.08;;;11.57;;
53618;SDS011;68717;53.040;18.488;2023-06-22T00:36:42;14.82;;;11.40;;
53618;SDS011;68717;53.040;18.488;2023-06-22T00:36:55;14.93;;;11.43;;
53618;SDS011;68717;53.040;18.488;2023-06-22T00:37:07;15.77;;;11.85;;
53618;SDS011;68717;53.040;18.488;2023-06-22T00:37:20;15.82;;;11.88;;
53618;SDS011;68717;53.040;18.488;2023-06-22T00:37:38;16.65;;;11.73;;
53618;SDS011;68717;53.040;18.488;2023-06-22T00:37:54;16.75;;;11.73;;
53618;SDS011;68717;53.040;18.488;2023-06-22T00:38:14;15.27;;;11.52;;
53618;SDS011;68717;53.040;18.488;2023-06-22T00:38:27;16.38;;;11.63;;
53618;SDS011;68717;53.040;18.488;2023-06-22T00:38:41;17.52;;;11.95;;
53618;SDS011;68717;53.040;18.488;2023-06-22T00:38:53;19.95;;;11.93;;
53618;SDS011;68717;53.040;18.488;2023-06-22T00:39:06;18.30;;;11.43;;
53618;SDS011;68717;53.040;18.488;2023-06-22T00:39:19;15.40;;;10.95;;
53618;SDS011;68717;53.040;18.488;2023-06-22T00:39:32;16.38;;;11.68;;
53618;SDS011;68717;53.040;18.488;2023-06-22T00:39:45;16.17;;;12.07;;
53618;SDS011;68717;53.040;18.488;2023-06-22T00:39:58;15.90;;;11.77;;
53618;SDS011;68717;53.040;18.488;2023-06-22T00:40:11;15.20;;;11.07;;
53618;SDS011;68717;53.040;18.488;2023-06-22T00:40:26;15.70;;;11.32;;
53618;SDS011;68717;53.040;18.488;2023-06-22T00:40:40;16.70;;;11.73;;
53618;SDS011;68717;53.040;18.488;2023-06-22T00:40:52;17.42;;;11.75;;
53618;SDS011;68717;53.040;18.488;2023-06-22T00:41:05;17.20;;;11.82;;
53618;SDS011;68717;53.040;18.488;2023-06-22T00:41:18;15.35;;;11.65;;
53618;SDS011;68717;53.040;18.488;2023-06-22T00:41:30;15.48;;;11.57;;
53618;SDS011;68717;53.040;18.488;2023-06-22T00:41:43;15.90;;;11.77;;
53618;SDS011;68717;53.040;18.488;2023-06-22T00:41:56;15.73;;;11.98;;
53618;SDS011;68717;53.040;18.488;2023-06-22T00:42:09;16.23;;;11.75;;
53618;SDS011;68717;53.040;18.488;2023-06-22T00:42:22;18.02;;;11.70;;
53618;SDS011;68717;53.040;18.488;2023-06-22T00:42:35;18.17;;;11.90;;
53618;SDS011;68717;53.040;18.488;2023-06-22T00:42:48;16.80;;;11.77;;
53618;SDS011;68717;53.040;18.488;2023-06-22T00:43:01;16.10;;;11.70;;
53618;SDS011;68717;53.040;18.488;2023-06-22T00:43:14;16.10;;;11.85;;
53618;SDS011;68717;53.040;18.488;2023-06-22T00:43:27;17.52;;;11.90;;
53618;SDS011;68717;53.040;18.488;2023-06-22T00:43:41;16.13;;;11.48;;
53618;SDS011;68717;53.040;18.488;2023-06-22T00:43:54;16.40;;;11.55;;
53618;SDS011;68717;53.040;18.488;2023-06-22T00:44:07;17.00;;;11.60;;
53618;SDS011;68717;53.040;18.488;2023-06-22T00:44:20;16.95;;;11.85;;
53618;SDS011;68717;53.040;18.488;2023-06-22T00:44:33;16.08;;;11.95;;
53618;SDS011;68717;53.040;18.488;2023-06-22T00:44:46;16.08;;;11.85;;
53618;SDS011;68717;53.040;18.488;2023-06-22T00:45:00;15.57;;;11.43;;
53618;SDS011;68717;53.040;18.488;2023-06-22T00:45:13;15.02;;;11.48;;
53618;SDS011;68717;53.040;18.488;2023-06-22T00:45:25;15.68;;;11.90;;
53618;SDS011;68717;53.040;18.488;2023-06-22T00:45:38;16.67;;;11.95;;
53618;SDS011;68717;53.040;18.488;2023-06-22T00:45:51;16.45;;;11.50;;
53618;SDS011;68717;53.040;18.488;2023-06-22T00:46:04;16.15;;;11.50;;
53618;SDS011;68717;53.040;18.488;2023-06-22T00:46:22;15.77;;;11.68;;
53618;SDS011;68717;53.040;18.488;2023-06-22T00:46:35;16.48;;;11.50;;
53618;SDS011;68717;53.040;18.488;2023-06-22T00:46:48;18.30;;;11.57;;
53618;SDS011;68717;53.040;18.488;2023-06-22T00:47:01;17.75;;;11.85;;
53618;SDS011;68717;53.040;18.488;2023-06-22T00:47:14;16.90;;;11.85;;
53618;SDS011;68717;53.040;18.488;2023-06-22T00:47:30;17.00;;;11.43;;
53618;SDS011;68717;53.040;18.488;2023-06-22T00:47:43;15.95;;;11.35;;
53618;SDS011;68717;53.040;18.488;2023-06-22T00:47:57;15.93;;;11.77;;
53618;SDS011;68717;53.040;18.488;2023-06-22T00:48:10;16.55;;;12.05;;
53618;SDS011;68717;53.040;18.488;2023-06-22T00:48:24;16.75;;;11.75;;
53618;SDS011;68717;53.040;18.488;2023-06-22T00:48:38;16.90;;;11.70;;
53618;SDS011;68717;53.040;18.488;2023-06-22T00:48:52;16.63;;;11.75;;
53618;SDS011;68717;53.040;18.488;2023-06-22T00:49:09;16.40;;;12.10;;
53618;SDS011;68717;53.040;18.488;2023-06-22T00:49:22;16.90;;;12.18;;
53618;SDS011;68717;53.040;18.488;2023-06-22T00:49:34;16.88;;;11.93;;
53618;SDS011;68717;53.040;18.488;2023-06-22T00:49:47;15.38;;;11.88;;
53618;SDS011;68717;53.040;18.488;2023-06-22T00:50:03;15.02;;;11.88;;
53618;SDS011;68717;53.040;18.488;2023-06-22T00:50:21;16.10;;;12.02;;
53618;SDS011;68717;53.040;18.488;2023-06-22T00:50:34;17.00;;;12.32;;
53618;SDS011;68717;53.040;18.488;2023-06-22T00:50:47;17.63;;;12.18;;
53618;SDS011;68717;53.040;18.488;2023-06-22T00:51:02;18.33;;;11.88;;
53618;SDS011;68717;53.040;18.488;2023-06-22T00:51:15;17.58;;;12.07;;
53618;SDS011;68717;53.040;18.488;2023-06-22T00:51:28;16.13;;;11.88;;
53618;SDS011;68717;53.040;18.488;2023-06-22T00:51:42;16.95;;;11.90;;
53618;SDS011;68717;53.040;18.488;2023-06-22T00:51:58;18.40;;;12.50;;
53618;SDS011;68717;53.040;18.488;2023-06-22T00:52:11;17.42;;;12.57;;
53618;SDS011;68717;53.040;18.488;2023-06-22T00:52:25;16.20;;;12.38;;
53618;SDS011;68717;53.040;18.488;2023-06-22T00:52:41;16.55;;;12.48;;
53618;SDS011;68717;53.040;18.488;2023-06-22T00:52:56;17.35;;;12.70;;
53618;SDS011;68717;53.040;18.488;2023-06-22T00:53:10;17.67;;;12.60;;
53618;SDS011;68717;53.040;18.488;2023-06-22T00:53:25;17.30;;;12.32;;
53618;SDS011;68717;53.040;18.488;2023-06-22T00:53:37;17.90;;;12.63;;
53618;SDS011;68717;53.040;18.488;2023-06-22T00:53:50;17.42;;;12.73;;
53618;SDS011;68717;53.040;18.488;2023-06-22T00:54:04;16.25;;;12.48;;
53618;SDS011;68717;53.040;18.488;2023-06-22T00:54:17;16.00;;;12.10;;
53618;SDS011;68717;53.040;18.488;2023-06-22T00:54:37;16.80;;;12.20;;
53618;SDS011;68717;53.040;18.488;2023-06-22T00:54:49;15.60;;;12.65;;
53618;SDS011;68717;53.040;18.488;2023-06-22T00:55:03;16.27;;;12.43;;
53618;SDS011;68717;53.040;18.488;2023-06-22T00:55:17;17.92;;;12.13;;
53618;SDS011;68717;53.040;18.488;2023-06-22T00:55:30;18.75;;;12.30;;
53618;SDS011;68717;53.040;18.488;2023-06-22T00:55:43;17.58;;;12.48;;
53618;SDS011;68717;53.040;18.488;2023-06-22T00:55:59;16.23;;;12.38;;
53618;SDS011;68717;53.040;18.488;2023-06-22T00:56:12;16.83;;;12.25;;
53618;SDS011;68717;53.040;18.488;2023-06-22T00:56:25;17.35;;;12.43;;
53618;SDS011;68717;53.040;18.488;2023-06-22T00:56:38;16.80;;;12.63;;
53618;SDS011;68717;53.040;18.488;2023-06-22T00:56:51;16.77;;;12.85;;
53618;SDS011;68717;53.040;18.488;2023-06-22T00:57:06;16.85;;;12.82;;
53618;SDS011;68717;53.040;18.488;2023-06-22T00:57:23;17.08;;;12.77;;
53618;SDS011;68717;53.040;18.488;2023-06-22T00:57:40;18.38;;;12.82;;
53618;SDS011;68717;53.040;18.488;2023-06-22T00:57:53;17.83;;;12.45;;
53618;SDS011;68717;53.040;18.488;2023-06-22T00:58:08;16.33;;;12.13;;
53618;SDS011;68717;53.040;18.488;2023-06-22T00:58:23;16.58;;;12.48;;
53618;SDS011;68717;53.040;18.488;2023-06-22T00:58:37;17.33;;;12.30;;
53618;SDS011;68717;53.040;18.488;2023-06-22T00:58:53;16.95;;;12.13;;
53618;SDS011;68717;53.040;18.488;2023-06-22T00:59:06;16.20;;;11.95;;
53618;SDS011;68717;53.040;18.488;2023-06-22T00:59:19;16.30;;;11.88;;
53618;SDS011;68717;53.040;18.488;2023-06-22T00:59:32;17.42;;;12.18;;
53618;SDS011;68717;53.040;18.488;2023-06-22T00:59:45;16.63;;;12.00;;
53618;SDS011;68717;53.040;18.488;2023-06-22T01:00:00;15.65;;;11.63;;
53618;SDS011;68717;53.040;18.488;2023-06-22T01:00:13;15.93;;;11.90;;
53618;SDS011;68717;53.040;18.488;2023-06-22T01:00:28;15.95;;;12.13;;
53618;SDS011;68717;53.040;18.488;2023-06-22T01:00:42;15.43;;;11.90;;
53618;SDS011;68717;53.040;18.488;2023-06-22T01:00:55;15.82;;;11.70;;
53618;SDS011;68717;53.040;18.488;2023-06-22T01:01:08;16.25;;;11.70;;
53618;SDS011;68717;53.040;18.488;2023-06-22T01:01:20;15.70;;;11.75;;
53618;SDS011;68717;53.040;18.488;2023-06-22T01:01:36;15.05;;;11.52;;
53618;SDS011;68717;53.040;18.488;2023-06-22T01:01:53;15.45;;;12.00;;
53618;SDS011;68717;53.040;18.488;2023-06-22T01:02:07;16.48;;;12.07;;
53618;SDS011;68717;53.040;18.488;2023-06-22T01:02:19;16.23;;;11.70;;
53618;SDS011;68717;53.040;18.488;2023-06-22T01:02:32;15.82;;;11.65;;
53618;SDS011;68717;53.040;18.488;2023-06-22T01:02:46;15.73;;;11.68;;
53618;SDS011;68717;53.040;18.488;2023-06-22T01:03:03;16.92;;;11.52;;
53618;SDS011;68717;53.040;18.488;2023-06-22T01:03:22;17.30;;;11.70;;
53618;SDS011;68717;53.040;18.488;2023-06-22T01:03:35;16.45;;;11.65;;
53618;SDS011;68717;53.040;18.488;2023-06-22T01:03:49;14.35;;;11.10;;
53618;SDS011;68717;53.040;18.488;2023-06-22T01:04:03;14.27;;;11.00;;
53618;SDS011;68717;53.040;18.488;2023-06-22T01:04:16;14.73;;;11.15;;
53618;SDS011;68717;53.040;18.488;2023-06-22T01:04:34;15.23;;;11.30;;
53618;SDS011;68717;53.040;18.488;2023-06-22T01:04:49;15.95;;;11.38;;
53618;SDS011;68717;53.040;18.488;2023-06-22T01:05:02;15.68;;;11.40;;
53618;SDS011;68717;53.040;18.488;2023-06-22T01:05:15;16.38;;;11.80;;
53618;SDS011;68717;53.040;18.488;2023-06-22T01:05:29;16.27;;;11.93;;
53618;SDS011;68717;53.040;18.488;2023-06-22T01:05:43;14.57;;;11.32;;
53618;SDS011;68717;53.040;18.488;2023-06-22T01:06:01;15.07;;;11.15;;
53618;SDS011;68717;53.040;18.488;2023-06-22T01:06:22;15.43;;;11.70;;
53618;SDS011;68717;53.040;18.488;2023-06-22T01:06:41;15.70;;;11.68;;
53618;SDS011;68717;53.040;18.488;2023-06-22T01:07:08;16.40;;;11.32;;
53618;SDS011;68717;53.040;18.488;2023-06-22T01:07:30;15.93;;;11.93;;
53618;SDS011;68717;53.040;18.488;2023-06-22T01:07:55;15.35;;;11.68;;
53618;SDS011;68717;53.040;18.488;2023-06-22T01:08:29;15.65;;;11.65;;
53618;SDS011;68717;53.040;18.488;2023-06-22T01:08:51;14.18;;;11.02;;
53618;SDS011;68717;53.040;18.488;2023-06-22T01:09:14;15.68;;;10.90;;
53618;SDS011;68717;53.040;18.488;2023-06-22T01:09:32;17.13;;;11.45;;
53618;SDS011;68717;53.040;18.488;2023-06-22T01:09:51;16.08;;;11.88;;
53618;SDS011;68717;53.040;18.488;2023-06-22T01:10:13;14.70;;;11.18;;
53618;SDS011;68717;53.040;18.488;2023-06-22T01:10:31;15.20;;;10.88;;
53618;SDS011;68717;53.040;18.488;2023-06-22T01:10:50;15.27;;;11.13;;
53618;SDS011;68717;53.040;18.488;2023-06-22T01:11:06;15.18;;;11.38;;
53618;SDS011;68717;53.040;18.488;2023-06-22T01:11:25;17.15;;;12.02;;
53618;SDS011;68717;53.040;18.488;2023-06-22T01:11:44;17.00;;;11.82;;
53618;SDS011;68717;53.040;18.488;2023-06-22T01:12:01;16.55;;;11.63;;
53618;SDS011;68717;53.040;18.488;2023-06-22T01:12:17;17.58;;;11.75;;
53618;SDS011;68717;53.040;18.488;2023-06-22T01:12:33;17.20;;;11.98;;
53618;SDS011;68717;53.040;18.488;2023-06-22T01:12:51;16.23;;;11.95;;
53618;SDS011;68717;53.040;18.488;2023-06-22T01:13:07;16.15;;;11.75;;
53618;SDS011;68717;53.040;18.488;2023-06-22T01:13:29;15.60;;;11.80;;
53618;SDS011;68717;53.040;18.488;2023-06-22T01:13:49;16.40;;;11.80;;
53618;SDS011;68717;53.040;18.488;2023-06-22T01:14:10;15.95;;;11.95;;
53618;SDS011;68717;53.040;18.488;2023-06-22T01:14:27;15.93;;;11.27;;
53618;SDS011;68717;53.040;18.488;2023-06-22T01:14:47;14.75;;;11.40;;
53618;SDS011;68717;53.040;18.488;2023-06-22T01:15:08;15.80;;;11.75;;
53618;SDS011;68717;53.040;18.488;2023-06-22T01:15:27;16.33;;;11.50;;
53618;SDS011;68717;53.040;18.488;2023-06-22T01:15:44;15.32;;;11.50;;
53618;SDS011;68717;53.040;18.488;2023-06-22T01:16:03;15.68;;;11.82;;
53618;SDS011;68717;53.040;18.488;2023-06-22T01:16:20;15.52;;;11.75;;
53618;SDS011;68717;53.040;18.488;2023-06-22T01:16:37;15.27;;;11.60;;
53618;SDS011;68717;53.040;18.488;2023-06-22T01:16:54;16.25;;;11.70;;
53618;SDS011;68717;53.040;18.488;2023-06-22T01:17:08;16.77;;;11.93;;
53618;SDS011;68717;53.040;18.488;2023-06-22T01:17:25;17.83;;;11.93;;
53618;SDS011;68717;53.040;18.488;2023-06-22T01:17:40;17.05;;;11.90;;
53618;SDS011;68717;53.040;18.488;2023-06-22T01:17:56;15.88;;;11.63;;
53618;SDS011;68717;53.040;18.488;2023-06-22T01:18:10;16.73;;;11.77;;
53618;SDS011;68717;53.040;18.488;2023-06-22T01:18:25;16.10;;;11.95;;
53618;SDS011;68717;53.040;18.488;2023-06-22T01:18:41;15.75;;;11.73;;
53618;SDS011;68717;53.040;18.488;2023-06-22T01:18:56;17.30;;;11.80;;
53618;SDS011;68717;53.040;18.488;2023-06-22T01:19:29;17.80;;;11.70;;
53618;SDS011;68717;53.040;18.488;2023-06-22T01:19:50;16.27;;;11.73;;
53618;SDS011;68717;53.040;18.488;2023-06-22T01:20:09;17.42;;;11.68;;
53618;SDS011;68717;53.040;18.488;2023-06-22T01:20:25;17.52;;;11.75;;
53618;SDS011;68717;53.040;18.488;2023-06-22T01:20:40;16.38;;;11.57;;
53618;SDS011;68717;53.040;18.488;2023-06-22T01:20:53;15.68;;;11.50;;
53618;SDS011;68717;53.040;18.488;2023-06-22T01:21:10;15.23;;;11.68;;
53618;SDS011;68717;53.040;18.488;2023-06-22T01:21:31;15.52;;;11.73;;
53618;SDS011;68717;53.040;18.488;2023-06-22T01:21:44;15.70;;;11.65;;
53618;SDS011;68717;53.040;18.488;2023-06-22T01:21:58;15.73;;;11.73;;
53618;SDS011;68717;53.040;18.488;2023-06-22T01:22:15;15.48;;;11.73;;
53618;SDS011;68717;53.040;18.488;2023-06-22T01:22:30;15.10;;;11.50;;
53618;SDS011;68717;53.040;18.488;2023-06-22T01:22:48;15.25;;;11.60;;
53618;SDS011;68717;53.040;18.488;2023-06-22T01:23:12;15.68;;;11.30;;
53618;SDS011;68717;53.040;18.488;2023-06-22T01:23:42;14.80;;;10.93;;